sensor_id;sensor_type;location;lat;lon;timestamp;P1;durP1;ratioP1;P2;durP2;ratioP2
1400;SDS011;46518;48.842;8.926;2024-01-30T00:01:30;7.43;;;5.85;;
1400;SDS011;46518;48.842;8.926;2024-01-30T00:03:58;9.60;;;7.90;;
1400;SDS011;46518;48.842;8.926;2024-01-30T00:06:27;9.52;;;7.35;;
1400;SDS011;46518;48.842;8.926;2024-01-30T00:08:55;7.60;;;6.90;;
1400;SDS011;46518;48.842;8.926;2024-01-30T00:11:23;8.07;;;6.45;;
1400;SDS011;46518;48.842;8.926;2024-01-30T00:13:52;7.50;;;6.80;;
1400;SDS011;46518;48.842;8.926;2024-01-30T00:16:21;10.23;;;5.80;;
1400;SDS011;46518;48.842;8.926;2024-01-30T00:18:52;6.53;;;5.70;;
1400;SDS011;46518;48.842;8.926;2024-01-30T00:21:21;6.95;;;5.43;;
1400;SDS011;46518;48.842;8.926;2024-01-30T00:23:49;4.90;;;4.40;;
1400;SDS011;46518;48.842;8.926;2024-01-30T00:26:18;9.85;;;6.57;;
1400;SDS011;46518;48.842;8.926;2024-01-30T00:28:47;9.00;;;7.90;;
1400;SDS011;46518;48.842;8.926;2024-01-30T00:31:15;7.75;;;5.88;;
1400;SDS011;46518;48.842;8.926;2024-01-30T00:33:44;6.65;;;5.30;;
1400;SDS011;46518;48.842;8.926;2024-01-30T00:36:13;7.70;;;5.80;;
1400;SDS011;46518;48.842;8.926;2024-01-30T00:38:41;6.95;;;5.40;;
1400;SDS011;46518;48.842;8.926;2024-01-30T00:41:10;6.13;;;5.30;;
1400;SDS011;46518;48.842;8.926;2024-01-30T00:43:38;6.75;;;5.80;;
1400;SDS011;46518;48.842;8.926;2024-01-30T00:46:07;6.30;;;5.25;;
1400;SDS011;46518;48.842;8.926;2024-01-30T00:48:37;5.60;;;5.00;;
1400;SDS011;46518;48.842;8.926;2024-01-30T00:51:06;7.55;;;5.13;;
1400;SDS011;46518;48.842;8.926;2024-01-30T00:53:35;7.80;;;5.97;;
1400;SDS011;46518;48.842;8.926;2024-01-30T00:56:04;6.85;;;5.00;;
1400;SDS011;46518;48.842;8.926;2024-01-30T00:58:32;5.97;;;5.15;;
1400;SDS011;46518;48.842;8.926;2024-01-30T01:01:00;5.45;;;4.90;;
1400;SDS011;46518;48.842;8.926;2024-01-30T01:03:29;6.47;;;5.20;;
1400;SDS011;46518;48.842;8.926;2024-01-30T01:06:00;6.30;;;5.32;;
1400;SDS011;46518;48.842;8.926;2024-01-30T01:08:28;6.35;;;4.97;;
1400;SDS011;46518;48.842;8.926;2024-01-30T01:10:57;6.53;;;4.88;;
1400;SDS011;46518;48.842;8.926;2024-01-30T01:13:26;5.70;;;4.63;;
1400;SDS011;46518;48.842;8.926;2024-01-30T01:15:54;5.50;;;4.88;;
1400;SDS011;46518;48.842;8.926;2024-01-30T01:18:22;7.30;;;5.13;;
1400;SDS011;46518;48.842;8.926;2024-01-30T01:20:50;5.70;;;5.10;;
1400;SDS011;46518;48.842;8.926;2024-01-30T01:23:18;6.82;;;5.22;;
1400;SDS011;46518;48.842;8.926;2024-01-30T01:25:47;6.93;;;5.88;;
1400;SDS011;46518;48.842;8.926;2024-01-30T01:28:16;8.70;;;4.95;;
1400;SDS011;46518;48.842;8.926;2024-01-30T01:30:45;5.28;;;4.75;;
1400;SDS011;46518;48.842;8.926;2024-01-30T01:33:13;7.57;;;4.45;;
1400;SDS011;46518;48.842;8.926;2024-01-30T01:35:42;6.05;;;4.60;;
1400;SDS011;46518;48.842;8.926;2024-01-30T01:38:10;7.78;;;5.38;;
1400;SDS011;46518;48.842;8.926;2024-01-30T01:40:38;5.43;;;4.50;;
1400;SDS011;46518;48.842;8.926;2024-01-30T01:43:07;5.30;;;4.80;;
1400;SDS011;46518;48.842;8.926;2024-01-30T01:45:37;7.03;;;5.18;;
1400;SDS011;46518;48.842;8.926;2024-01-30T01:48:06;6.65;;;4.65;;
1400;SDS011;46518;48.842;8.926;2024-01-30T01:50:35;6.22;;;4.75;;
1400;SDS011;46518;48.842;8.926;2024-01-30T01:53:05;6.10;;;4.65;;
1400;SDS011;46518;48.842;8.926;2024-01-30T01:55:35;4.90;;;4.28;;
1400;SDS011;46518;48.842;8.926;2024-01-30T01:58:03;7.35;;;3.90;;
1400;SDS011;46518;48.842;8.926;2024-01-30T02:00:32;6.00;;;4.35;;
1400;SDS011;46518;48.842;8.926;2024-01-30T02:03:03;4.88;;;4.28;;
1400;SDS011;46518;48.842;8.926;2024-01-30T02:05:33;5.43;;;4.90;;
1400;SDS011;46518;48.842;8.926;2024-01-30T02:08:02;5.18;;;4.68;;
1400;SDS011;46518;48.842;8.926;2024-01-30T02:10:31;4.88;;;4.10;;
1400;SDS011;46518;48.842;8.926;2024-01-30T02:12:59;5.25;;;4.15;;
1400;SDS011;46518;48.842;8.926;2024-01-30T02:15:27;4.60;;;4.03;;
1400;SDS011;46518;48.842;8.926;2024-01-30T02:17:56;4.28;;;3.67;;
1400;SDS011;46518;48.842;8.926;2024-01-30T02:20:26;4.05;;;3.60;;
1400;SDS011;46518;48.842;8.926;2024-01-30T02:22:59;4.90;;;4.40;;
1400;SDS011;46518;48.842;8.926;2024-01-30T02:25:32;6.10;;;5.03;;
1400;SDS011;46518;48.842;8.926;2024-01-30T02:28:01;5.40;;;4.28;;
1400;SDS011;46518;48.842;8.926;2024-01-30T02:30:29;7.40;;;4.90;;
1400;SDS011;46518;48.842;8.926;2024-01-30T02:32:57;6.43;;;4.78;;
1400;SDS011;46518;48.842;8.926;2024-01-30T02:35:25;5.10;;;3.92;;
1400;SDS011;46518;48.842;8.926;2024-01-30T02:37:54;6.85;;;4.47;;
1400;SDS011;46518;48.842;8.926;2024-01-30T02:40:23;6.25;;;4.60;;
1400;SDS011;46518;48.842;8.926;2024-01-30T02:42:51;4.95;;;4.55;;
1400;SDS011;46518;48.842;8.926;2024-01-30T02:45:20;6.82;;;5.28;;
1400;SDS011;46518;48.842;8.926;2024-01-30T02:47:48;5.65;;;4.30;;
1400;SDS011;46518;48.842;8.926;2024-01-30T02:50:16;4.30;;;3.90;;
1400;SDS011;46518;48.842;8.926;2024-01-30T02:52:44;5.05;;;4.60;;
1400;SDS011;46518;48.842;8.926;2024-01-30T02:55:12;5.03;;;4.53;;
1400;SDS011;46518;48.842;8.926;2024-01-30T02:57:45;6.00;;;4.80;;
1400;SDS011;46518;48.842;8.926;2024-01-30T03:00:14;7.13;;;4.40;;
1400;SDS011;46518;48.842;8.926;2024-01-30T03:02:42;5.72;;;4.57;;
1400;SDS011;46518;48.842;8.926;2024-01-30T03:05:10;4.35;;;3.58;;
1400;SDS011;46518;48.842;8.926;2024-01-30T03:07:38;6.05;;;4.60;;
1400;SDS011;46518;48.842;8.926;2024-01-30T03:10:07;5.78;;;4.47;;
1400;SDS011;46518;48.842;8.926;2024-01-30T03:12:35;5.45;;;4.85;;
1400;SDS011;46518;48.842;8.926;2024-01-30T03:15:05;4.32;;;3.92;;
1400;SDS011;46518;48.842;8.926;2024-01-30T03:17:34;4.45;;;4.05;;
1400;SDS011;46518;48.842;8.926;2024-01-30T03:20:03;5.68;;;4.18;;
1400;SDS011;46518;48.842;8.926;2024-01-30T03:22:33;5.10;;;3.50;;
1400;SDS011;46518;48.842;8.926;2024-01-30T03:25:01;3.80;;;3.42;;
1400;SDS011;46518;48.842;8.926;2024-01-30T03:27:29;4.85;;;3.92;;
1400;SDS011;46518;48.842;8.926;2024-01-30T03:29:58;5.22;;;4.22;;
1400;SDS011;46518;48.842;8.926;2024-01-30T03:32:26;5.80;;;5.20;;
1400;SDS011;46518;48.842;8.926;2024-01-30T03:34:56;5.60;;;4.63;;
1400;SDS011;46518;48.842;8.926;2024-01-30T03:37:25;5.68;;;4.60;;
1400;SDS011;46518;48.842;8.926;2024-01-30T03:39:53;4.80;;;4.10;;
1400;SDS011;46518;48.842;8.926;2024-01-30T03:42:21;5.97;;;4.30;;
1400;SDS011;46518;48.842;8.926;2024-01-30T03:44:50;5.70;;;4.63;;
1400;SDS011;46518;48.842;8.926;2024-01-30T03:47:20;5.43;;;4.50;;
1400;SDS011;46518;48.842;8.926;2024-01-30T03:49:50;8.80;;;4.95;;
1400;SDS011;46518;48.842;8.926;2024-01-30T03:52:18;5.40;;;4.45;;
1400;SDS011;46518;48.842;8.926;2024-01-30T03:54:46;5.00;;;4.50;;
1400;SDS011;46518;48.842;8.926;2024-01-30T03:57:15;4.70;;;4.30;;
1400;SDS011;46518;48.842;8.926;2024-01-30T03:59:43;6.35;;;4.13;;
1400;SDS011;46518;48.842;8.926;2024-01-30T04:02:11;6.97;;;5.40;;
1400;SDS011;46518;48.842;8.926;2024-01-30T04:04:40;5.75;;;4.50;;
1400;SDS011;46518;48.842;8.926;2024-01-30T04:07:09;4.00;;;3.60;;
1400;SDS011;46518;48.842;8.926;2024-01-30T04:09:38;4.68;;;4.15;;
1400;SDS011;46518;48.842;8.926;2024-01-30T04:12:06;4.00;;;3.63;;
1400;SDS011;46518;48.842;8.926;2024-01-30T04:14:34;4.55;;;4.07;;
1400;SDS011;46518;48.842;8.926;2024-01-30T04:17:03;5.65;;;4.63;;
1400;SDS011;46518;48.842;8.926;2024-01-30T04:19:31;4.00;;;3.53;;
1400;SDS011;46518;48.842;8.926;2024-01-30T04:21:59;4.85;;;3.60;;
1400;SDS011;46518;48.842;8.926;2024-01-30T04:24:29;4.40;;;3.60;;
1400;SDS011;46518;48.842;8.926;2024-01-30T04:26:57;4.03;;;3.28;;
1400;SDS011;46518;48.842;8.926;2024-01-30T04:29:25;5.35;;;3.75;;
1400;SDS011;46518;48.842;8.926;2024-01-30T04:31:53;3.40;;;3.10;;
1400;SDS011;46518;48.842;8.926;2024-01-30T04:34:21;5.55;;;4.95;;
1400;SDS011;46518;48.842;8.926;2024-01-30T04:36:49;4.28;;;3.55;;
1400;SDS011;46518;48.842;8.926;2024-01-30T04:39:18;7.63;;;3.70;;
1400;SDS011;46518;48.842;8.926;2024-01-30T04:41:47;4.00;;;3.60;;
1400;SDS011;46518;48.842;8.926;2024-01-30T04:44:15;4.28;;;3.45;;
1400;SDS011;46518;48.842;8.926;2024-01-30T04:46:44;2.88;;;2.65;;
1400;SDS011;46518;48.842;8.926;2024-01-30T04:49:12;4.07;;;3.60;;
1400;SDS011;46518;48.842;8.926;2024-01-30T04:51:40;3.30;;;3.00;;
1400;SDS011;46518;48.842;8.926;2024-01-30T04:54:08;3.55;;;3.25;;
1400;SDS011;46518;48.842;8.926;2024-01-30T04:56:37;5.43;;;4.88;;
1400;SDS011;46518;48.842;8.926;2024-01-30T04:59:07;6.00;;;4.40;;
1400;SDS011;46518;48.842;8.926;2024-01-30T05:01:36;6.15;;;5.53;;
1400;SDS011;46518;48.842;8.926;2024-01-30T05:04:06;6.57;;;5.53;;
1400;SDS011;46518;48.842;8.926;2024-01-30T05:06:35;5.55;;;4.25;;
1400;SDS011;46518;48.842;8.926;2024-01-30T05:09:03;4.60;;;3.72;;
1400;SDS011;46518;48.842;8.926;2024-01-30T05:11:36;4.63;;;4.22;;
1400;SDS011;46518;48.842;8.926;2024-01-30T05:14:04;5.35;;;3.95;;
1400;SDS011;46518;48.842;8.926;2024-01-30T05:16:34;4.97;;;3.95;;
1400;SDS011;46518;48.842;8.926;2024-01-30T05:19:02;6.72;;;4.50;;
1400;SDS011;46518;48.842;8.926;2024-01-30T05:21:31;5.05;;;4.15;;
1400;SDS011;46518;48.842;8.926;2024-01-30T05:23:59;4.90;;;4.35;;
1400;SDS011;46518;48.842;8.926;2024-01-30T05:26:27;5.22;;;4.72;;
1400;SDS011;46518;48.842;8.926;2024-01-30T05:28:55;4.40;;;4.00;;
1400;SDS011;46518;48.842;8.926;2024-01-30T05:31:24;4.13;;;3.80;;
1400;SDS011;46518;48.842;8.926;2024-01-30T05:33:55;5.28;;;4.00;;
1400;SDS011;46518;48.842;8.926;2024-01-30T05:36:24;4.22;;;3.83;;
1400;SDS011;46518;48.842;8.926;2024-01-30T05:38:52;5.50;;;4.35;;
1400;SDS011;46518;48.842;8.926;2024-01-30T05:41:20;7.13;;;5.47;;
1400;SDS011;46518;48.842;8.926;2024-01-30T05:43:48;7.75;;;5.65;;
1400;SDS011;46518;48.842;8.926;2024-01-30T05:46:17;7.35;;;6.05;;
1400;SDS011;46518;48.842;8.926;2024-01-30T05:48:48;12.77;;;7.10;;
1400;SDS011;46518;48.842;8.926;2024-01-30T05:51:18;8.57;;;6.55;;
1400;SDS011;46518;48.842;8.926;2024-01-30T05:53:46;7.50;;;6.00;;
1400;SDS011;46518;48.842;8.926;2024-01-30T05:56:14;8.80;;;6.88;;
1400;SDS011;46518;48.842;8.926;2024-01-30T05:58:43;8.27;;;5.30;;
1400;SDS011;46518;48.842;8.926;2024-01-30T06:01:11;8.93;;;5.45;;
1400;SDS011;46518;48.842;8.926;2024-01-30T06:03:39;7.28;;;5.57;;
1400;SDS011;46518;48.842;8.926;2024-01-30T06:06:07;6.60;;;5.45;;
1400;SDS011;46518;48.842;8.926;2024-01-30T06:08:37;6.28;;;5.28;;
1400;SDS011;46518;48.842;8.926;2024-01-30T06:11:05;6.00;;;5.40;;
1400;SDS011;46518;48.842;8.926;2024-01-30T06:13:33;6.07;;;5.47;;
1400;SDS011;46518;48.842;8.926;2024-01-30T06:16:02;4.90;;;4.40;;
1400;SDS011;46518;48.842;8.926;2024-01-30T06:18:30;7.30;;;4.80;;
1400;SDS011;46518;48.842;8.926;2024-01-30T06:20:58;7.93;;;5.05;;
1400;SDS011;46518;48.842;8.926;2024-01-30T06:23:26;8.00;;;5.25;;
1400;SDS011;46518;48.842;8.926;2024-01-30T06:25:55;9.32;;;5.60;;
1400;SDS011;46518;48.842;8.926;2024-01-30T06:28:24;7.95;;;5.40;;
1400;SDS011;46518;48.842;8.926;2024-01-30T06:30:52;6.38;;;5.35;;
1400;SDS011;46518;48.842;8.926;2024-01-30T06:33:24;6.53;;;5.45;;
1400;SDS011;46518;48.842;8.926;2024-01-30T06:35:53;6.55;;;4.80;;
1400;SDS011;46518;48.842;8.926;2024-01-30T06:38:21;7.22;;;5.20;;
1400;SDS011;46518;48.842;8.926;2024-01-30T06:40:49;5.68;;;5.18;;
1400;SDS011;46518;48.842;8.926;2024-01-30T06:43:18;8.70;;;5.30;;
1400;SDS011;46518;48.842;8.926;2024-01-30T06:45:47;5.63;;;4.72;;
1400;SDS011;46518;48.842;8.926;2024-01-30T06:48:15;6.30;;;4.15;;
1400;SDS011;46518;48.842;8.926;2024-01-30T06:50:43;6.35;;;4.50;;
1400;SDS011;46518;48.842;8.926;2024-01-30T06:53:12;5.45;;;4.28;;
1400;SDS011;46518;48.842;8.926;2024-01-30T06:55:40;5.32;;;4.43;;
1400;SDS011;46518;48.842;8.926;2024-01-30T06:58:08;6.30;;;4.82;;
1400;SDS011;46518;48.842;8.926;2024-01-30T07:00:38;6.28;;;4.40;;
1400;SDS011;46518;48.842;8.926;2024-01-30T07:03:06;8.38;;;5.93;;
1400;SDS011;46518;48.842;8.926;2024-01-30T07:05:34;5.15;;;4.60;;
1400;SDS011;46518;48.842;8.926;2024-01-30T07:08:03;5.72;;;4.97;;
1400;SDS011;46518;48.842;8.926;2024-01-30T07:10:31;7.25;;;5.32;;
1400;SDS011;46518;48.842;8.926;2024-01-30T07:13:00;6.15;;;5.55;;
1400;SDS011;46518;48.842;8.926;2024-01-30T07:15:28;9.55;;;5.60;;
1400;SDS011;46518;48.842;8.926;2024-01-30T07:17:57;8.23;;;5.82;;
1400;SDS011;46518;48.842;8.926;2024-01-30T07:20:26;6.32;;;4.65;;
1400;SDS011;46518;48.842;8.926;2024-01-30T07:22:54;5.63;;;5.00;;
1400;SDS011;46518;48.842;8.926;2024-01-30T07:25:22;8.40;;;4.90;;
1400;SDS011;46518;48.842;8.926;2024-01-30T07:27:53;4.65;;;4.25;;
1400;SDS011;46518;48.842;8.926;2024-01-30T07:30:21;6.53;;;5.32;;
1400;SDS011;46518;48.842;8.926;2024-01-30T07:32:50;5.88;;;5.25;;
1400;SDS011;46518;48.842;8.926;2024-01-30T07:35:19;7.57;;;6.45;;
1400;SDS011;46518;48.842;8.926;2024-01-30T07:37:48;9.20;;;5.65;;
1400;SDS011;46518;48.842;8.926;2024-01-30T07:40:16;9.02;;;6.20;;
1400;SDS011;46518;48.842;8.926;2024-01-30T07:42:45;9.00;;;5.90;;
1400;SDS011;46518;48.842;8.926;2024-01-30T07:45:15;6.70;;;5.95;;
1400;SDS011;46518;48.842;8.926;2024-01-30T07:47:43;6.53;;;5.20;;
1400;SDS011;46518;48.842;8.926;2024-01-30T07:50:12;6.55;;;5.95;;
1400;SDS011;46518;48.842;8.926;2024-01-30T07:52:41;7.07;;;5.60;;
1400;SDS011;46518;48.842;8.926;2024-01-30T07:55:10;4.38;;;3.40;;
1400;SDS011;46518;48.842;8.926;2024-01-30T07:57:39;6.57;;;4.93;;
1400;SDS011;46518;48.842;8.926;2024-01-30T08:00:08;4.07;;;3.70;;
1400;SDS011;46518;48.842;8.926;2024-01-30T08:02:37;4.35;;;3.55;;
1400;SDS011;46518;48.842;8.926;2024-01-30T08:05:05;7.35;;;3.85;;
1400;SDS011;46518;48.842;8.926;2024-01-30T08:07:34;5.18;;;3.40;;
1400;SDS011;46518;48.842;8.926;2024-01-30T08:10:04;5.53;;;3.80;;
1400;SDS011;46518;48.842;8.926;2024-01-30T08:12:32;4.30;;;3.90;;
1400;SDS011;46518;48.842;8.926;2024-01-30T08:15:01;6.45;;;3.40;;
1400;SDS011;46518;48.842;8.926;2024-01-30T08:17:30;3.92;;;3.33;;
1400;SDS011;46518;48.842;8.926;2024-01-30T08:19:58;4.95;;;3.15;;
1400;SDS011;46518;48.842;8.926;2024-01-30T08:22:28;4.70;;;3.50;;
1400;SDS011;46518;48.842;8.926;2024-01-30T08:24:57;4.20;;;3.00;;
1400;SDS011;46518;48.842;8.926;2024-01-30T08:27:27;3.95;;;3.42;;
1400;SDS011;46518;48.842;8.926;2024-01-30T08:29:56;4.95;;;4.50;;
1400;SDS011;46518;48.842;8.926;2024-01-30T08:32:24;7.68;;;5.00;;
1400;SDS011;46518;48.842;8.926;2024-01-30T08:34:53;5.10;;;4.40;;
1400;SDS011;46518;48.842;8.926;2024-01-30T08:37:22;7.03;;;5.88;;
1400;SDS011;46518;48.842;8.926;2024-01-30T08:39:51;3.92;;;3.63;;
1400;SDS011;46518;48.842;8.926;2024-01-30T08:42:19;6.57;;;4.40;;
1400;SDS011;46518;48.842;8.926;2024-01-30T08:44:50;6.95;;;4.80;;
1400;SDS011;46518;48.842;8.926;2024-01-30T08:47:20;6.40;;;5.30;;
1400;SDS011;46518;48.842;8.926;2024-01-30T08:49:48;9.27;;;6.65;;
1400;SDS011;46518;48.842;8.926;2024-01-30T08:52:16;5.47;;;4.88;;
1400;SDS011;46518;48.842;8.926;2024-01-30T08:54:45;5.45;;;4.28;;
1400;SDS011;46518;48.842;8.926;2024-01-30T08:57:13;5.97;;;5.00;;
1400;SDS011;46518;48.842;8.926;2024-01-30T08:59:43;6.68;;;4.90;;
1400;SDS011;46518;48.842;8.926;2024-01-30T09:02:14;4.43;;;3.83;;
1400;SDS011;46518;48.842;8.926;2024-01-30T09:04:43;4.28;;;3.85;;
1400;SDS011;46518;48.842;8.926;2024-01-30T09:07:12;6.20;;;3.70;;
1400;SDS011;46518;48.842;8.926;2024-01-30T09:09:41;4.53;;;3.50;;
1400;SDS011;46518;48.842;8.926;2024-01-30T09:12:09;7.85;;;5.13;;
1400;SDS011;46518;48.842;8.926;2024-01-30T09:14:39;4.47;;;3.17;;
1400;SDS011;46518;48.842;8.926;2024-01-30T09:17:08;4.43;;;3.78;;
1400;SDS011;46518;48.842;8.926;2024-01-30T09:19:38;5.20;;;4.47;;
1400;SDS011;46518;48.842;8.926;2024-01-30T09:22:06;4.68;;;3.53;;
1400;SDS011;46518;48.842;8.926;2024-01-30T09:24:35;4.45;;;3.55;;
1400;SDS011;46518;48.842;8.926;2024-01-30T09:27:03;5.78;;;3.65;;
1400;SDS011;46518;48.842;8.926;2024-01-30T09:29:31;4.50;;;3.65;;
1400;SDS011;46518;48.842;8.926;2024-01-30T09:32:01;6.30;;;3.58;;
1400;SDS011;46518;48.842;8.926;2024-01-30T09:34:30;5.85;;;3.83;;
1400;SDS011;46518;48.842;8.926;2024-01-30T09:37:00;4.18;;;3.70;;
1400;SDS011;46518;48.842;8.926;2024-01-30T09:39:29;6.43;;;3.50;;
1400;SDS011;46518;48.842;8.926;2024-01-30T09:42:00;8.50;;;3.58;;
1400;SDS011;46518;48.842;8.926;2024-01-30T09:44:33;6.13;;;3.70;;
1400;SDS011;46518;48.842;8.926;2024-01-30T09:47:03;6.78;;;4.03;;
1400;SDS011;46518;48.842;8.926;2024-01-30T09:49:32;4.75;;;4.22;;
1400;SDS011;46518;48.842;8.926;2024-01-30T09:52:06;7.53;;;4.55;;
1400;SDS011;46518;48.842;8.926;2024-01-30T09:54:35;5.53;;;4.63;;
1400;SDS011;46518;48.842;8.926;2024-01-30T09:57:05;5.18;;;4.53;;
1400;SDS011;46518;48.842;8.926;2024-01-30T09:59:34;6.68;;;5.15;;
1400;SDS011;46518;48.842;8.926;2024-01-30T10:02:02;6.32;;;5.70;;
1400;SDS011;46518;48.842;8.926;2024-01-30T10:04:31;5.82;;;5.15;;
1400;SDS011;46518;48.842;8.926;2024-01-30T10:07:00;8.80;;;6.25;;
1400;SDS011;46518;48.842;8.926;2024-01-30T10:09:33;8.68;;;6.20;;
1400;SDS011;46518;48.842;8.926;2024-01-30T10:12:02;4.95;;;4.53;;
1400;SDS011;46518;48.842;8.926;2024-01-30T10:14:31;7.10;;;4.60;;
1400;SDS011;46518;48.842;8.926;2024-01-30T10:17:00;4.20;;;3.78;;
1400;SDS011;46518;48.842;8.926;2024-01-30T10:19:40;6.07;;;4.40;;
1400;SDS011;46518;48.842;8.926;2024-01-30T10:22:09;4.30;;;3.65;;
1400;SDS011;46518;48.842;8.926;2024-01-30T10:24:38;4.55;;;4.15;;
1400;SDS011;46518;48.842;8.926;2024-01-30T10:27:07;6.00;;;4.22;;
1400;SDS011;46518;48.842;8.926;2024-01-30T10:29:35;4.45;;;4.05;;
1400;SDS011;46518;48.842;8.926;2024-01-30T10:32:07;3.88;;;3.35;;
1400;SDS011;46518;48.842;8.926;2024-01-30T10:34:36;6.65;;;3.85;;
1400;SDS011;46518;48.842;8.926;2024-01-30T10:37:06;6.32;;;3.63;;
1400;SDS011;46518;48.842;8.926;2024-01-30T10:39:41;10.35;;;4.53;;
1400;SDS011;46518;48.842;8.926;2024-01-30T10:42:11;8.05;;;3.60;;
1400;SDS011;46518;48.842;8.926;2024-01-30T10:44:46;3.75;;;3.30;;
1400;SDS011;46518;48.842;8.926;2024-01-30T10:47:25;4.75;;;3.90;;
1400;SDS011;46518;48.842;8.926;2024-01-30T10:49:55;5.45;;;4.05;;
1400;SDS011;46518;48.842;8.926;2024-01-30T10:52:24;7.85;;;3.50;;
1400;SDS011;46518;48.842;8.926;2024-01-30T10:54:56;3.20;;;2.90;;
1400;SDS011;46518;48.842;8.926;2024-01-30T10:57:27;5.72;;;5.22;;
1400;SDS011;46518;48.842;8.926;2024-01-30T10:59:57;4.00;;;3.65;;
1400;SDS011;46518;48.842;8.926;2024-01-30T11:02:26;3.70;;;3.40;;
1400;SDS011;46518;48.842;8.926;2024-01-30T11:04:58;5.95;;;3.65;;
1400;SDS011;46518;48.842;8.926;2024-01-30T11:07:28;5.25;;;3.22;;
1400;SDS011;46518;48.842;8.926;2024-01-30T11:10:01;3.90;;;3.60;;
1400;SDS011;46518;48.842;8.926;2024-01-30T11:12:32;4.53;;;3.83;;
1400;SDS011;46518;48.842;8.926;2024-01-30T11:15:02;3.70;;;3.20;;
1400;SDS011;46518;48.842;8.926;2024-01-30T11:17:45;7.28;;;3.65;;
1400;SDS011;46518;48.842;8.926;2024-01-30T11:20:22;4.28;;;3.55;;
1400;SDS011;46518;48.842;8.926;2024-01-30T11:22:54;4.72;;;3.63;;
1400;SDS011;46518;48.842;8.926;2024-01-30T11:25:25;3.90;;;3.60;;
1400;SDS011;46518;48.842;8.926;2024-01-30T11:27:55;4.40;;;3.03;;
1400;SDS011;46518;48.842;8.926;2024-01-30T11:30:24;3.72;;;3.35;;
1400;SDS011;46518;48.842;8.926;2024-01-30T11:33:00;4.45;;;3.45;;
1400;SDS011;46518;48.842;8.926;2024-01-30T11:35:32;4.53;;;3.17;;
1400;SDS011;46518;48.842;8.926;2024-01-30T11:38:01;4.80;;;4.28;;
1400;SDS011;46518;48.842;8.926;2024-01-30T11:40:31;6.05;;;4.85;;
1400;SDS011;46518;48.842;8.926;2024-01-30T11:43:01;4.90;;;3.63;;
1400;SDS011;46518;48.842;8.926;2024-01-30T11:45:35;4.40;;;3.88;;
1400;SDS011;46518;48.842;8.926;2024-01-30T11:48:04;4.03;;;3.67;;
1400;SDS011;46518;48.842;8.926;2024-01-30T11:50:34;5.55;;;3.13;;
1400;SDS011;46518;48.842;8.926;2024-01-30T11:53:09;6.20;;;4.43;;
1400;SDS011;46518;48.842;8.926;2024-01-30T11:55:39;4.13;;;3.55;;
1400;SDS011;46518;48.842;8.926;2024-01-30T11:58:08;3.80;;;3.28;;
1400;SDS011;46518;48.842;8.926;2024-01-30T12:00:36;3.88;;;3.58;;
1400;SDS011;46518;48.842;8.926;2024-01-30T12:03:04;3.70;;;3.30;;
1400;SDS011;46518;48.842;8.926;2024-01-30T12:05:33;4.25;;;3.42;;
1400;SDS011;46518;48.842;8.926;2024-01-30T12:08:03;4.18;;;3.80;;
1400;SDS011;46518;48.842;8.926;2024-01-30T12:10:32;5.45;;;4.50;;
1400;SDS011;46518;48.842;8.926;2024-01-30T12:13:02;4.57;;;3.97;;
1400;SDS011;46518;48.842;8.926;2024-01-30T12:15:31;7.25;;;4.30;;
1400;SDS011;46518;48.842;8.926;2024-01-30T12:18:06;4.20;;;3.70;;
1400;SDS011;46518;48.842;8.926;2024-01-30T12:20:37;9.05;;;5.45;;
1400;SDS011;46518;48.842;8.926;2024-01-30T12:23:06;5.95;;;3.90;;
1400;SDS011;46518;48.842;8.926;2024-01-30T12:25:36;4.68;;;4.28;;
1400;SDS011;46518;48.842;8.926;2024-01-30T12:28:06;4.28;;;3.65;;
1400;SDS011;46518;48.842;8.926;2024-01-30T12:30:34;3.97;;;3.20;;
1400;SDS011;46518;48.842;8.926;2024-01-30T12:33:03;5.97;;;4.47;;
1400;SDS011;46518;48.842;8.926;2024-01-30T12:35:34;3.55;;;3.25;;
1400;SDS011;46518;48.842;8.926;2024-01-30T12:38:09;4.57;;;4.00;;
1400;SDS011;46518;48.842;8.926;2024-01-30T12:40:37;4.05;;;3.38;;
1400;SDS011;46518;48.842;8.926;2024-01-30T12:43:09;4.53;;;3.38;;
1400;SDS011;46518;48.842;8.926;2024-01-30T12:45:37;5.00;;;4.20;;
1400;SDS011;46518;48.842;8.926;2024-01-30T12:48:06;3.67;;;3.00;;
1400;SDS011;46518;48.842;8.926;2024-01-30T12:50:34;4.32;;;3.60;;
1400;SDS011;46518;48.842;8.926;2024-01-30T12:53:03;4.85;;;3.25;;
1400;SDS011;46518;48.842;8.926;2024-01-30T12:55:34;4.13;;;3.38;;
1400;SDS011;46518;48.842;8.926;2024-01-30T12:58:02;4.65;;;3.08;;
1400;SDS011;46518;48.842;8.926;2024-01-30T13:00:32;3.20;;;2.90;;
1400;SDS011;46518;48.842;8.926;2024-01-30T13:03:01;3.92;;;3.53;;
1400;SDS011;46518;48.842;8.926;2024-01-30T13:05:29;3.75;;;3.45;;
1400;SDS011;46518;48.842;8.926;2024-01-30T13:07:57;5.05;;;3.53;;
1400;SDS011;46518;48.842;8.926;2024-01-30T13:10:26;4.65;;;3.40;;
1400;SDS011;46518;48.842;8.926;2024-01-30T13:12:54;4.03;;;3.25;;
1400;SDS011;46518;48.842;8.926;2024-01-30T13:15:22;3.67;;;3.38;;
1400;SDS011;46518;48.842;8.926;2024-01-30T13:17:52;2.92;;;2.72;;
1400;SDS011;46518;48.842;8.926;2024-01-30T13:20:21;4.50;;;3.65;;
1400;SDS011;46518;48.842;8.926;2024-01-30T13:22:49;5.55;;;3.47;;
1400;SDS011;46518;48.842;8.926;2024-01-30T13:25:17;3.72;;;3.42;;
1400;SDS011;46518;48.842;8.926;2024-01-30T13:27:46;5.15;;;3.72;;
1400;SDS011;46518;48.842;8.926;2024-01-30T13:30:14;3.20;;;3.00;;
1400;SDS011;46518;48.842;8.926;2024-01-30T13:32:42;3.22;;;2.88;;
1400;SDS011;46518;48.842;8.926;2024-01-30T13:35:14;3.78;;;3.47;;
1400;SDS011;46518;48.842;8.926;2024-01-30T13:37:42;5.28;;;4.22;;
1400;SDS011;46518;48.842;8.926;2024-01-30T13:40:12;3.60;;;3.30;;
1400;SDS011;46518;48.842;8.926;2024-01-30T13:42:41;4.03;;;3.63;;
1400;SDS011;46518;48.842;8.926;2024-01-30T13:45:09;4.65;;;3.38;;
1400;SDS011;46518;48.842;8.926;2024-01-30T13:47:38;3.83;;;3.20;;
1400;SDS011;46518;48.842;8.926;2024-01-30T13:50:06;4.05;;;3.75;;
1400;SDS011;46518;48.842;8.926;2024-01-30T13:52:38;4.80;;;4.40;;
1400;SDS011;46518;48.842;8.926;2024-01-30T13:55:11;4.68;;;4.03;;
1400;SDS011;46518;48.842;8.926;2024-01-30T13:57:40;4.80;;;4.30;;
1400;SDS011;46518;48.842;8.926;2024-01-30T14:00:09;4.22;;;3.92;;
1400;SDS011;46518;48.842;8.926;2024-01-30T14:02:39;4.30;;;3.90;;
1400;SDS011;46518;48.842;8.926;2024-01-30T14:05:07;4.57;;;4.18;;
1400;SDS011;46518;48.842;8.926;2024-01-30T14:07:38;4.63;;;4.22;;
1400;SDS011;46518;48.842;8.926;2024-01-30T14:10:07;5.20;;;4.68;;
1400;SDS011;46518;48.842;8.926;2024-01-30T14:12:41;5.75;;;4.95;;
1400;SDS011;46518;48.842;8.926;2024-01-30T14:15:11;6.10;;;4.93;;
1400;SDS011;46518;48.842;8.926;2024-01-30T14:17:53;4.97;;;4.47;;
1400;SDS011;46518;48.842;8.926;2024-01-30T14:20:22;5.05;;;4.55;;
1400;SDS011;46518;48.842;8.926;2024-01-30T14:22:52;5.65;;;4.60;;
1400;SDS011;46518;48.842;8.926;2024-01-30T14:25:23;6.15;;;4.60;;
1400;SDS011;46518;48.842;8.926;2024-01-30T14:27:51;5.60;;;5.10;;
1400;SDS011;46518;48.842;8.926;2024-01-30T14:30:24;5.65;;;4.68;;
1400;SDS011;46518;48.842;8.926;2024-01-30T14:32:58;4.75;;;4.07;;
1400;SDS011;46518;48.842;8.926;2024-01-30T14:35:29;5.80;;;5.20;;
1400;SDS011;46518;48.842;8.926;2024-01-30T14:37:59;7.20;;;5.10;;
1400;SDS011;46518;48.842;8.926;2024-01-30T14:40:28;6.07;;;5.47;;
1400;SDS011;46518;48.842;8.926;2024-01-30T14:42:56;7.70;;;5.78;;
1400;SDS011;46518;48.842;8.926;2024-01-30T14:45:25;7.65;;;5.95;;
1400;SDS011;46518;48.842;8.926;2024-01-30T14:47:54;7.35;;;6.38;;
1400;SDS011;46518;48.842;8.926;2024-01-30T14:50:23;6.15;;;5.05;;
1400;SDS011;46518;48.842;8.926;2024-01-30T14:52:51;5.60;;;4.78;;
1400;SDS011;46518;48.842;8.926;2024-01-30T14:55:21;7.07;;;5.65;;
1400;SDS011;46518;48.842;8.926;2024-01-30T14:57:49;7.45;;;5.30;;
1400;SDS011;46518;48.842;8.926;2024-01-30T15:00:21;6.20;;;5.47;;
1400;SDS011;46518;48.842;8.926;2024-01-30T15:02:49;7.00;;;5.00;;
1400;SDS011;46518;48.842;8.926;2024-01-30T15:05:17;6.70;;;6.00;;
1400;SDS011;46518;48.842;8.926;2024-01-30T15:07:45;4.47;;;4.07;;
1400;SDS011;46518;48.842;8.926;2024-01-30T15:10:14;5.35;;;4.47;;
1400;SDS011;46518;48.842;8.926;2024-01-30T15:12:44;5.15;;;4.65;;